Terminal Aerodrome Forecast
Issued by NWS

Home | Current Version | Previous Version | Text Only | Print | Product List | Glossary On
Versions: 1 2 3 4 5 6 7 8 9 10 11 12 13
092
FTPA31 PHFO 261120
TAFHJR
TAF
PHJR 261120Z 2612/2712 05004KT P6SM BKN070 OVC200
     FM262100 14009KT P6SM FEW035 SCT045 SCT200
     FM270500 05004KT P6SM SCT040=

USA.gov is the U.S. government's official web portal to all federal, state and local government web resources and services.